sensor_id;sensor_type;location;lat;lon;timestamp;P1;durP1;ratioP1;P2;durP2;ratioP2
55112;SDS011;41006;50.920;3.456;2023-05-02T00:00:19;42.15;;;35.80;;
55112;SDS011;41006;50.920;3.456;2023-05-02T00:00:51;46.90;;;36.55;;
55112;SDS011;41006;50.920;3.456;2023-05-02T00:01:22;40.00;;;35.95;;
55112;SDS011;41006;50.920;3.456;2023-05-02T00:01:52;40.05;;;35.78;;
55112;SDS011;41006;50.920;3.456;2023-05-02T00:02:22;39.65;;;35.05;;
55112;SDS011;41006;50.920;3.456;2023-05-02T00:02:53;39.35;;;35.15;;
55112;SDS011;41006;50.920;3.456;2023-05-02T00:03:23;44.25;;;36.20;;
55112;SDS011;41006;50.920;3.456;2023-05-02T00:03:54;40.30;;;36.20;;
55112;SDS011;41006;50.920;3.456;2023-05-02T00:04:24;45.05;;;35.75;;
55112;SDS011;41006;50.920;3.456;2023-05-02T00:04:59;43.20;;;36.47;;
55112;SDS011;41006;50.920;3.456;2023-05-02T00:05:30;41.95;;;37.45;;
55112;SDS011;41006;50.920;3.456;2023-05-02T00:06:02;41.33;;;36.95;;
55112;SDS011;41006;50.920;3.456;2023-05-02T00:06:35;40.03;;;34.70;;
55112;SDS011;41006;50.920;3.456;2023-05-02T00:07:05;40.17;;;35.85;;
55112;SDS011;41006;50.920;3.456;2023-05-02T00:07:35;44.08;;;34.78;;
55112;SDS011;41006;50.920;3.456;2023-05-02T00:08:06;39.38;;;35.10;;
55112;SDS011;41006;50.920;3.456;2023-05-02T00:08:39;42.85;;;36.33;;
55112;SDS011;41006;50.920;3.456;2023-05-02T00:09:12;39.03;;;35.08;;
55112;SDS011;41006;50.920;3.456;2023-05-02T00:09:44;41.20;;;36.60;;
55112;SDS011;41006;50.920;3.456;2023-05-02T00:10:15;39.47;;;35.17;;
55112;SDS011;41006;50.920;3.456;2023-05-02T00:10:45;40.75;;;36.20;;
55112;SDS011;41006;50.920;3.456;2023-05-02T00:11:16;40.80;;;34.90;;
55112;SDS011;41006;50.920;3.456;2023-05-02T00:11:48;41.83;;;36.50;;
55112;SDS011;41006;50.920;3.456;2023-05-02T00:12:18;40.10;;;35.88;;
55112;SDS011;41006;50.920;3.456;2023-05-02T00:12:49;41.28;;;36.92;;
55112;SDS011;41006;50.920;3.456;2023-05-02T00:13:19;46.22;;;37.88;;
55112;SDS011;41006;50.920;3.456;2023-05-02T00:13:52;41.67;;;37.15;;
55112;SDS011;41006;50.920;3.456;2023-05-02T00:14:23;42.83;;;35.97;;
55112;SDS011;41006;50.920;3.456;2023-05-02T00:14:53;42.72;;;38.03;;
55112;SDS011;41006;50.920;3.456;2023-05-02T00:15:23;43.20;;;36.58;;
55112;SDS011;41006;50.920;3.456;2023-05-02T00:15:58;40.83;;;36.40;;
55112;SDS011;41006;50.920;3.456;2023-05-02T00:16:29;41.65;;;37.17;;
55112;SDS011;41006;50.920;3.456;2023-05-02T00:16:59;43.97;;;36.45;;
55112;SDS011;41006;50.920;3.456;2023-05-02T00:17:31;48.70;;;38.53;;
55112;SDS011;41006;50.920;3.456;2023-05-02T00:18:02;42.90;;;38.17;;
55112;SDS011;41006;50.920;3.456;2023-05-02T00:18:34;41.92;;;37.17;;
55112;SDS011;41006;50.920;3.456;2023-05-02T00:19:04;40.65;;;36.25;;
55112;SDS011;41006;50.920;3.456;2023-05-02T00:19:37;41.30;;;37.03;;
55112;SDS011;41006;50.920;3.456;2023-05-02T00:20:09;40.58;;;36.15;;
55112;SDS011;41006;50.920;3.456;2023-05-02T00:20:42;39.85;;;35.78;;
55112;SDS011;41006;50.920;3.456;2023-05-02T00:21:14;40.45;;;36.72;;
55112;SDS011;41006;50.920;3.456;2023-05-02T00:21:48;42.95;;;38.42;;
55112;SDS011;41006;50.920;3.456;2023-05-02T00:22:20;41.75;;;37.47;;
55112;SDS011;41006;50.920;3.456;2023-05-02T00:22:50;41.92;;;37.15;;
55112;SDS011;41006;50.920;3.456;2023-05-02T00:23:21;42.97;;;38.33;;
55112;SDS011;41006;50.920;3.456;2023-05-02T00:23:56;41.72;;;37.58;;
55112;SDS011;41006;50.920;3.456;2023-05-02T00:24:26;46.33;;;37.95;;
55112;SDS011;41006;50.920;3.456;2023-05-02T00:24:59;41.50;;;37.08;;
55112;SDS011;41006;50.920;3.456;2023-05-02T00:25:32;41.63;;;37.20;;
55112;SDS011;41006;50.920;3.456;2023-05-02T00:26:02;42.17;;;37.28;;
55112;SDS011;41006;50.920;3.456;2023-05-02T00:26:35;40.70;;;36.47;;
55112;SDS011;41006;50.920;3.456;2023-05-02T00:27:08;41.70;;;36.67;;
55112;SDS011;41006;50.920;3.456;2023-05-02T00:27:40;46.40;;;37.72;;
55112;SDS011;41006;50.920;3.456;2023-05-02T00:28:10;40.53;;;36.33;;
55112;SDS011;41006;50.920;3.456;2023-05-02T00:28:42;41.78;;;37.38;;
55112;SDS011;41006;50.920;3.456;2023-05-02T00:29:13;42.53;;;36.67;;
55112;SDS011;41006;50.920;3.456;2023-05-02T00:29:43;43.10;;;38.17;;
55112;SDS011;41006;50.920;3.456;2023-05-02T00:30:13;43.28;;;37.70;;
55112;SDS011;41006;50.920;3.456;2023-05-02T00:30:46;42.60;;;37.25;;
55112;SDS011;41006;50.920;3.456;2023-05-02T00:31:16;42.30;;;37.97;;
55112;SDS011;41006;50.920;3.456;2023-05-02T00:31:47;43.78;;;39.15;;
55112;SDS011;41006;50.920;3.456;2023-05-02T00:32:17;44.50;;;38.00;;
55112;SDS011;41006;50.920;3.456;2023-05-02T00:32:47;44.72;;;39.05;;
55112;SDS011;41006;50.920;3.456;2023-05-02T00:33:18;41.00;;;36.65;;
55112;SDS011;41006;50.920;3.456;2023-05-02T00:33:48;44.00;;;39.38;;
55112;SDS011;41006;50.920;3.456;2023-05-02T00:34:21;52.85;;;41.85;;
55112;SDS011;41006;50.920;3.456;2023-05-02T00:34:53;52.03;;;40.88;;
55112;SDS011;41006;50.920;3.456;2023-05-02T00:35:24;59.42;;;44.70;;
55112;SDS011;41006;50.920;3.456;2023-05-02T00:35:59;64.22;;;46.42;;
55112;SDS011;41006;50.920;3.456;2023-05-02T00:36:29;85.50;;;52.30;;
55112;SDS011;41006;50.920;3.456;2023-05-02T00:37:00;88.72;;;52.17;;
55112;SDS011;41006;50.920;3.456;2023-05-02T00:37:30;62.75;;;45.10;;
55112;SDS011;41006;50.920;3.456;2023-05-02T00:38:03;64.47;;;45.63;;
55112;SDS011;41006;50.920;3.456;2023-05-02T00:38:33;61.97;;;44.83;;
55112;SDS011;41006;50.920;3.456;2023-05-02T00:39:03;65.07;;;45.22;;
55112;SDS011;41006;50.920;3.456;2023-05-02T00:39:34;62.75;;;44.42;;
55112;SDS011;41006;50.920;3.456;2023-05-02T00:40:05;56.08;;;41.83;;
55112;SDS011;41006;50.920;3.456;2023-05-02T00:40:44;53.70;;;43.05;;
55112;SDS011;41006;50.920;3.456;2023-05-02T00:41:17;58.33;;;43.38;;
55112;SDS011;41006;50.920;3.456;2023-05-02T00:41:47;50.72;;;40.65;;
55112;SDS011;41006;50.920;3.456;2023-05-02T00:42:17;47.25;;;41.72;;
55112;SDS011;41006;50.920;3.456;2023-05-02T00:42:50;49.00;;;40.97;;
55112;SDS011;41006;50.920;3.456;2023-05-02T00:43:20;46.13;;;39.17;;
55112;SDS011;41006;50.920;3.456;2023-05-02T00:43:51;52.30;;;41.13;;
55112;SDS011;41006;50.920;3.456;2023-05-02T00:44:23;49.40;;;41.03;;
55112;SDS011;41006;50.920;3.456;2023-05-02T00:44:55;49.10;;;39.97;;
55112;SDS011;41006;50.920;3.456;2023-05-02T00:45:28;50.83;;;41.55;;
55112;SDS011;41006;50.920;3.456;2023-05-02T00:45:59;46.20;;;40.53;;
55112;SDS011;41006;50.920;3.456;2023-05-02T00:46:31;51.22;;;40.95;;
55112;SDS011;41006;50.920;3.456;2023-05-02T00:47:02;51.00;;;41.03;;
55112;SDS011;41006;50.920;3.456;2023-05-02T00:47:32;50.15;;;40.05;;
55112;SDS011;41006;50.920;3.456;2023-05-02T00:48:05;48.83;;;40.30;;
55112;SDS011;41006;50.920;3.456;2023-05-02T00:48:36;45.78;;;40.35;;
55112;SDS011;41006;50.920;3.456;2023-05-02T00:49:09;49.83;;;41.03;;
55112;SDS011;41006;50.920;3.456;2023-05-02T00:49:41;46.15;;;39.83;;
55112;SDS011;41006;50.920;3.456;2023-05-02T00:50:12;47.30;;;40.38;;
55112;SDS011;41006;50.920;3.456;2023-05-02T00:50:45;43.28;;;38.85;;
55112;SDS011;41006;50.920;3.456;2023-05-02T00:51:17;44.47;;;38.95;;
55112;SDS011;41006;50.920;3.456;2023-05-02T00:51:51;49.42;;;40.05;;
55112;SDS011;41006;50.920;3.456;2023-05-02T00:52:24;48.67;;;40.03;;
55112;SDS011;41006;50.920;3.456;2023-05-02T00:53:00;47.25;;;39.92;;
55112;SDS011;41006;50.920;3.456;2023-05-02T00:53:32;45.05;;;40.13;;
55112;SDS011;41006;50.920;3.456;2023-05-02T00:54:05;42.72;;;38.30;;
55112;SDS011;41006;50.920;3.456;2023-05-02T00:54:38;43.85;;;36.90;;
55112;SDS011;41006;50.920;3.456;2023-05-02T00:55:08;42.10;;;37.45;;
55112;SDS011;41006;50.920;3.456;2023-05-02T00:55:41;42.58;;;38.08;;
55112;SDS011;41006;50.920;3.456;2023-05-02T00:56:14;42.72;;;36.75;;
55112;SDS011;41006;50.920;3.456;2023-05-02T00:56:46;42.10;;;37.75;;
55112;SDS011;41006;50.920;3.456;2023-05-02T00:57:21;41.30;;;37.17;;
55112;SDS011;41006;50.920;3.456;2023-05-02T00:57:54;42.13;;;37.88;;
55112;SDS011;41006;50.920;3.456;2023-05-02T00:58:24;42.58;;;37.30;;
55112;SDS011;41006;50.920;3.456;2023-05-02T00:58:57;42.58;;;38.25;;
55112;SDS011;41006;50.920;3.456;2023-05-02T00:59:28;43.22;;;38.67;;
55112;SDS011;41006;50.920;3.456;2023-05-02T00:59:58;41.47;;;37.05;;
55112;SDS011;41006;50.920;3.456;2023-05-02T01:02:56;43.20;;;38.72;;
55112;SDS011;41006;50.920;3.456;2023-05-02T01:05:29;47.00;;;40.13;;
55112;SDS011;41006;50.920;3.456;2023-05-02T01:08:34;44.65;;;40.13;;
55112;SDS011;41006;50.920;3.456;2023-05-02T01:10:47;44.30;;;39.67;;
55112;SDS011;41006;50.920;3.456;2023-05-02T01:11:43;45.85;;;39.70;;
55112;SDS011;41006;50.920;3.456;2023-05-02T01:12:18;43.38;;;38.83;;
55112;SDS011;41006;50.920;3.456;2023-05-02T01:13:31;45.05;;;40.22;;
55112;SDS011;41006;50.920;3.456;2023-05-02T01:14:02;44.45;;;39.72;;
55112;SDS011;41006;50.920;3.456;2023-05-02T01:14:35;43.97;;;39.40;;
55112;SDS011;41006;50.920;3.456;2023-05-02T01:15:11;45.88;;;40.75;;
55112;SDS011;41006;50.920;3.456;2023-05-02T01:15:47;44.42;;;39.67;;
55112;SDS011;41006;50.920;3.456;2023-05-02T01:16:20;43.97;;;39.50;;
55112;SDS011;41006;50.920;3.456;2023-05-02T01:16:54;42.72;;;37.90;;
55112;SDS011;41006;50.920;3.456;2023-05-02T01:17:26;42.22;;;37.88;;
55112;SDS011;41006;50.920;3.456;2023-05-02T01:17:57;44.88;;;39.05;;
55112;SDS011;41006;50.920;3.456;2023-05-02T01:18:30;45.15;;;40.25;;
55112;SDS011;41006;50.920;3.456;2023-05-02T01:19:01;44.25;;;39.20;;
55112;SDS011;41006;50.920;3.456;2023-05-02T01:19:37;41.15;;;36.35;;
55112;SDS011;41006;50.920;3.456;2023-05-02T01:20:11;48.95;;;39.20;;
55112;SDS011;41006;50.920;3.456;2023-05-02T01:20:43;44.83;;;37.80;;
55112;SDS011;41006;50.920;3.456;2023-05-02T01:21:13;43.65;;;36.67;;
55112;SDS011;41006;50.920;3.456;2023-05-02T01:21:46;41.90;;;37.50;;
55112;SDS011;41006;50.920;3.456;2023-05-02T01:22:20;43.15;;;38.00;;
55112;SDS011;41006;50.920;3.456;2023-05-02T01:22:55;42.90;;;38.30;;
55112;SDS011;41006;50.920;3.456;2023-05-02T01:23:42;46.72;;;40.35;;
55112;SDS011;41006;50.920;3.456;2023-05-02T01:24:21;44.03;;;39.53;;
55112;SDS011;41006;50.920;3.456;2023-05-02T01:25:59;44.83;;;37.80;;
55112;SDS011;41006;50.920;3.456;2023-05-02T01:26:37;48.60;;;39.47;;
55112;SDS011;41006;50.920;3.456;2023-05-02T01:27:23;42.67;;;38.20;;
55112;SDS011;41006;50.920;3.456;2023-05-02T01:28:34;43.17;;;38.55;;
55112;SDS011;41006;50.920;3.456;2023-05-02T01:29:06;43.47;;;37.75;;
55112;SDS011;41006;50.920;3.456;2023-05-02T01:29:42;45.75;;;39.25;;
55112;SDS011;41006;50.920;3.456;2023-05-02T01:30:16;42.63;;;38.10;;
55112;SDS011;41006;50.920;3.456;2023-05-02T01:30:47;48.80;;;40.00;;
55112;SDS011;41006;50.920;3.456;2023-05-02T01:31:24;47.45;;;39.90;;
55112;SDS011;41006;50.920;3.456;2023-05-02T01:31:56;44.67;;;39.47;;
55112;SDS011;41006;50.920;3.456;2023-05-02T01:32:27;45.03;;;38.47;;
55112;SDS011;41006;50.920;3.456;2023-05-02T01:33:00;51.45;;;39.90;;
55112;SDS011;41006;50.920;3.456;2023-05-02T01:33:31;48.13;;;38.55;;
55112;SDS011;41006;50.920;3.456;2023-05-02T01:34:06;48.08;;;37.47;;
55112;SDS011;41006;50.920;3.456;2023-05-02T01:34:39;44.45;;;38.25;;
55112;SDS011;41006;50.920;3.456;2023-05-02T01:35:10;47.70;;;39.00;;
55112;SDS011;41006;50.920;3.456;2023-05-02T01:35:43;43.53;;;39.13;;
55112;SDS011;41006;50.920;3.456;2023-05-02T01:36:15;48.13;;;39.38;;
55112;SDS011;41006;50.920;3.456;2023-05-02T01:36:49;47.35;;;39.30;;
55112;SDS011;41006;50.920;3.456;2023-05-02T01:37:25;44.65;;;40.08;;
55112;SDS011;41006;50.920;3.456;2023-05-02T01:37:58;47.20;;;39.55;;
55112;SDS011;41006;50.920;3.456;2023-05-02T01:38:30;49.58;;;39.22;;
55112;SDS011;41006;50.920;3.456;2023-05-02T01:39:04;44.22;;;38.50;;
55112;SDS011;41006;50.920;3.456;2023-05-02T01:39:42;45.33;;;37.80;;
55112;SDS011;41006;50.920;3.456;2023-05-02T01:40:16;46.75;;;39.95;;
55112;SDS011;41006;50.920;3.456;2023-05-02T01:40:46;46.03;;;39.53;;
55112;SDS011;41006;50.920;3.456;2023-05-02T01:41:19;44.78;;;39.83;;
55112;SDS011;41006;50.920;3.456;2023-05-02T01:41:52;47.45;;;39.60;;
55112;SDS011;41006;50.920;3.456;2023-05-02T01:42:23;42.70;;;38.05;;
55112;SDS011;41006;50.920;3.456;2023-05-02T01:42:54;46.60;;;39.67;;
55112;SDS011;41006;50.920;3.456;2023-05-02T01:43:25;43.88;;;38.92;;
55112;SDS011;41006;50.920;3.456;2023-05-02T01:43:58;50.17;;;40.70;;
55112;SDS011;41006;50.920;3.456;2023-05-02T01:44:29;47.90;;;40.38;;
55112;SDS011;41006;50.920;3.456;2023-05-02T01:45:03;46.28;;;40.10;;
55112;SDS011;41006;50.920;3.456;2023-05-02T01:45:34;43.88;;;39.17;;
55112;SDS011;41006;50.920;3.456;2023-05-02T01:46:07;48.40;;;39.45;;
55112;SDS011;41006;50.920;3.456;2023-05-02T01:46:39;45.05;;;39.63;;
55112;SDS011;41006;50.920;3.456;2023-05-02T01:47:09;47.08;;;41.15;;
55112;SDS011;41006;50.920;3.456;2023-05-02T01:47:40;42.67;;;38.17;;
55112;SDS011;41006;50.920;3.456;2023-05-02T01:48:14;49.53;;;40.88;;
55112;SDS011;41006;50.920;3.456;2023-05-02T01:48:46;49.38;;;39.28;;
55112;SDS011;41006;50.920;3.456;2023-05-02T01:49:17;45.13;;;40.22;;
55112;SDS011;41006;50.920;3.456;2023-05-02T01:49:48;43.97;;;39.45;;
55112;SDS011;41006;50.920;3.456;2023-05-02T01:50:19;53.28;;;42.22;;
55112;SDS011;41006;50.920;3.456;2023-05-02T01:50:52;50.83;;;41.55;;
55112;SDS011;41006;50.920;3.456;2023-05-02T01:51:25;47.22;;;41.78;;
55112;SDS011;41006;50.920;3.456;2023-05-02T01:52:04;44.38;;;39.38;;
55112;SDS011;41006;50.920;3.456;2023-05-02T01:52:39;43.30;;;38.67;;
55112;SDS011;41006;50.920;3.456;2023-05-02T01:53:10;49.38;;;41.47;;
55112;SDS011;41006;50.920;3.456;2023-05-02T01:53:44;48.85;;;41.58;;
55112;SDS011;41006;50.920;3.456;2023-05-02T01:54:15;47.15;;;40.28;;
55112;SDS011;41006;50.920;3.456;2023-05-02T01:54:46;49.00;;;40.13;;
55112;SDS011;41006;50.920;3.456;2023-05-02T01:55:17;44.85;;;40.08;;
55112;SDS011;41006;50.920;3.456;2023-05-02T01:55:47;46.90;;;39.45;;
55112;SDS011;41006;50.920;3.456;2023-05-02T01:56:20;50.40;;;40.67;;
55112;SDS011;41006;50.920;3.456;2023-05-02T01:56:54;48.20;;;39.30;;
55112;SDS011;41006;50.920;3.456;2023-05-02T01:57:25;45.15;;;39.75;;
55112;SDS011;41006;50.920;3.456;2023-05-02T01:57:58;56.10;;;41.05;;
55112;SDS011;41006;50.920;3.456;2023-05-02T01:58:29;43.17;;;38.55;;
55112;SDS011;41006;50.920;3.456;2023-05-02T01:59:01;48.65;;;40.78;;
55112;SDS011;41006;50.920;3.456;2023-05-02T01:59:32;51.78;;;41.55;;
55112;SDS011;41006;50.920;3.456;2023-05-02T02:00:02;45.45;;;40.42;;
55112;SDS011;41006;50.920;3.456;2023-05-02T02:00:33;51.80;;;39.47;;
55112;SDS011;41006;50.920;3.456;2023-05-02T02:01:04;48.50;;;39.92;;
55112;SDS011;41006;50.920;3.456;2023-05-02T02:01:39;48.38;;;39.72;;
55112;SDS011;41006;50.920;3.456;2023-05-02T02:02:12;54.90;;;40.30;;
55112;SDS011;41006;50.920;3.456;2023-05-02T02:02:45;49.47;;;41.00;;
55112;SDS011;41006;50.920;3.456;2023-05-02T02:03:16;47.50;;;39.72;;
55112;SDS011;41006;50.920;3.456;2023-05-02T02:03:46;52.22;;;40.63;;
55112;SDS011;41006;50.920;3.456;2023-05-02T02:04:19;50.25;;;39.42;;
55112;SDS011;41006;50.920;3.456;2023-05-02T02:04:54;55.90;;;41.03;;
55112;SDS011;41006;50.920;3.456;2023-05-02T02:05:27;49.83;;;39.15;;
55112;SDS011;41006;50.920;3.456;2023-05-02T02:05:59;49.10;;;37.65;;
55112;SDS011;41006;50.920;3.456;2023-05-02T02:06:34;50.17;;;38.55;;
55112;SDS011;41006;50.920;3.456;2023-05-02T02:07:05;48.28;;;38.28;;
55112;SDS011;41006;50.920;3.456;2023-05-02T02:07:36;51.53;;;39.85;;
55112;SDS011;41006;50.920;3.456;2023-05-02T02:08:09;55.10;;;38.92;;
55112;SDS011;41006;50.920;3.456;2023-05-02T02:08:41;53.25;;;38.63;;
55112;SDS011;41006;50.920;3.456;2023-05-02T02:09:14;47.30;;;40.00;;
55112;SDS011;41006;50.920;3.456;2023-05-02T02:09:47;53.35;;;39.92;;
55112;SDS011;41006;50.920;3.456;2023-05-02T02:10:17;54.08;;;39.53;;
55112;SDS011;41006;50.920;3.456;2023-05-02T02:10:55;48.25;;;39.50;;
55112;SDS011;41006;50.920;3.456;2023-05-02T02:11:32;45.58;;;37.65;;
55112;SDS011;41006;50.920;3.456;2023-05-02T02:12:10;47.15;;;37.25;;
55112;SDS011;41006;50.920;3.456;2023-05-02T02:12:41;53.20;;;37.83;;
55112;SDS011;41006;50.920;3.456;2023-05-02T02:13:16;46.25;;;38.25;;
55112;SDS011;41006;50.920;3.456;2023-05-02T02:13:48;47.65;;;38.45;;
55112;SDS011;41006;50.920;3.456;2023-05-02T02:14:21;47.83;;;38.63;;
55112;SDS011;41006;50.920;3.456;2023-05-02T02:15:05;48.58;;;39.47;;
55112;SDS011;41006;50.920;3.456;2023-05-02T02:15:37;49.25;;;38.85;;
55112;SDS011;41006;50.920;3.456;2023-05-02T02:16:11;47.88;;;38.45;;
55112;SDS011;41006;50.920;3.456;2023-05-02T02:16:45;51.85;;;40.47;;
55112;SDS011;41006;50.920;3.456;2023-05-02T02:17:28;53.20;;;41.15;;
55112;SDS011;41006;50.920;3.456;2023-05-02T02:18:31;51.72;;;41.17;;
55112;SDS011;41006;50.920;3.456;2023-05-02T02:19:05;52.28;;;40.50;;
55112;SDS011;41006;50.920;3.456;2023-05-02T02:19:36;48.88;;;41.40;;
55112;SDS011;41006;50.920;3.456;2023-05-02T02:20:08;45.45;;;39.17;;
55112;SDS011;41006;50.920;3.456;2023-05-02T02:20:44;46.17;;;40.35;;
55112;SDS011;41006;50.920;3.456;2023-05-02T02:21:16;48.90;;;40.85;;
55112;SDS011;41006;50.920;3.456;2023-05-02T02:21:49;49.78;;;39.80;;
55112;SDS011;41006;50.920;3.456;2023-05-02T02:22:21;44.97;;;40.15;;
55112;SDS011;41006;50.920;3.456;2023-05-02T02:22:52;53.65;;;40.30;;
55112;SDS011;41006;50.920;3.456;2023-05-02T02:23:24;51.22;;;41.03;;
55112;SDS011;41006;50.920;3.456;2023-05-02T02:23:56;45.70;;;40.47;;
55112;SDS011;41006;50.920;3.456;2023-05-02T02:24:28;50.38;;;39.67;;
55112;SDS011;41006;50.920;3.456;2023-05-02T02:25:03;47.63;;;39.38;;
55112;SDS011;41006;50.920;3.456;2023-05-02T02:25:35;54.65;;;41.70;;
55112;SDS011;41006;50.920;3.456;2023-05-02T02:26:08;52.92;;;40.95;;
55112;SDS011;41006;50.920;3.456;2023-05-02T02:26:38;48.33;;;39.83;;
55112;SDS011;41006;50.920;3.456;2023-05-02T02:27:09;50.50;;;39.97;;
55112;SDS011;41006;50.920;3.456;2023-05-02T02:27:39;56.72;;;42.10;;
55112;SDS011;41006;50.920;3.456;2023-05-02T02:28:12;49.95;;;40.63;;
55112;SDS011;41006;50.920;3.456;2023-05-02T02:28:42;49.05;;;40.25;;
55112;SDS011;41006;50.920;3.456;2023-05-02T02:29:12;49.20;;;40.28;;
55112;SDS011;41006;50.920;3.456;2023-05-02T02:29:43;53.42;;;41.17;;
55112;SDS011;41006;50.920;3.456;2023-05-02T02:30:13;50.67;;;40.95;;
55112;SDS011;41006;50.920;3.456;2023-05-02T02:30:45;53.67;;;41.28;;
55112;SDS011;41006;50.920;3.456;2023-05-02T02:31:15;48.53;;;40.97;;
55112;SDS011;41006;50.920;3.456;2023-05-02T02:31:45;51.45;;;41.13;;
55112;SDS011;41006;50.920;3.456;2023-05-02T02:32:16;53.28;;;39.72;;
55112;SDS011;41006;50.920;3.456;2023-05-02T02:32:46;51.97;;;39.20;;
55112;SDS011;41006;50.920;3.456;2023-05-02T02:33:16;50.40;;;40.03;;
55112;SDS011;41006;50.920;3.456;2023-05-02T02:33:47;51.97;;;41.67;;
55112;SDS011;41006;50.920;3.456;2023-05-02T02:34:19;51.15;;;40.60;;
55112;SDS011;41006;50.920;3.456;2023-05-02T02:34:50;56.28;;;41.38;;
55112;SDS011;41006;50.920;3.456;2023-05-02T02:35:20;51.63;;;39.88;;
55112;SDS011;41006;50.920;3.456;2023-05-02T02:35:57;47.97;;;39.55;;
55112;SDS011;41006;50.920;3.456;2023-05-02T02:36:32;51.78;;;41.53;;
55112;SDS011;41006;50.920;3.456;2023-05-02T02:37:51;50.05;;;38.78;;
55112;SDS011;41006;50.920;3.456;2023-05-02T02:40:44;49.67;;;40.97;;
55112;SDS011;41006;50.920;3.456;2023-05-02T02:41:48;58.60;;;42.03;;
55112;SDS011;41006;50.920;3.456;2023-05-02T02:43:18;55.63;;;39.85;;
55112;SDS011;41006;50.920;3.456;2023-05-02T02:45:47;60.50;;;42.60;;
55112;SDS011;41006;50.920;3.456;2023-05-02T02:47:26;55.03;;;42.38;;
55112;SDS011;41006;50.920;3.456;2023-05-02T02:50:37;49.08;;;40.53;;
55112;SDS011;41006;50.920;3.456;2023-05-02T02:51:44;51.42;;;38.00;;
55112;SDS011;41006;50.920;3.456;2023-05-02T02:53:02;57.15;;;39.38;;
55112;SDS011;41006;50.920;3.456;2023-05-02T02:53:37;59.17;;;41.08;;
55112;SDS011;41006;50.920;3.456;2023-05-02T02:54:44;58.00;;;42.47;;
55112;SDS011;41006;50.920;3.456;2023-05-02T02:56:28;53.78;;;40.90;;
55112;SDS011;41006;50.920;3.456;2023-05-02T02:57:12;51.72;;;40.17;;
55112;SDS011;41006;50.920;3.456;2023-05-02T02:58:24;60.58;;;41.08;;
55112;SDS011;41006;50.920;3.456;2023-05-02T02:59:15;60.60;;;42.13;;
55112;SDS011;41006;50.920;3.456;2023-05-02T03:00:00;58.97;;;43.13;;
55112;SDS011;41006;50.920;3.456;2023-05-02T03:00:32;53.58;;;41.97;;
55112;SDS011;41006;50.920;3.456;2023-05-02T03:01:04;53.83;;;42.10;;
55112;SDS011;41006;50.920;3.456;2023-05-02T03:01:35;56.78;;;42.97;;
55112;SDS011;41006;50.920;3.456;2023-05-02T03:02:11;53.20;;;40.53;;
55112;SDS011;41006;50.920;3.456;2023-05-02T03:02:41;51.85;;;39.30;;
55112;SDS011;41006;50.920;3.456;2023-05-02T03:03:15;49.88;;;39.53;;
55112;SDS011;41006;50.920;3.456;2023-05-02T03:03:47;53.10;;;42.45;;
55112;SDS011;41006;50.920;3.456;2023-05-02T03:04:20;48.05;;;42.22;;
55112;SDS011;41006;50.920;3.456;2023-05-02T03:04:51;53.50;;;40.05;;
55112;SDS011;41006;50.920;3.456;2023-05-02T03:05:25;52.92;;;41.75;;
55112;SDS011;41006;50.920;3.456;2023-05-02T03:05:58;53.80;;;41.65;;
55112;SDS011;41006;50.920;3.456;2023-05-02T03:06:28;53.08;;;41.53;;
55112;SDS011;41006;50.920;3.456;2023-05-02T03:06:59;53.42;;;41.28;;
55112;SDS011;41006;50.920;3.456;2023-05-02T03:07:29;47.92;;;40.38;;
55112;SDS011;41006;50.920;3.456;2023-05-02T03:08:00;54.17;;;42.45;;
55112;SDS011;41006;50.920;3.456;2023-05-02T03:08:40;54.70;;;42.55;;
55112;SDS011;41006;50.920;3.456;2023-05-02T03:09:13;51.80;;;42.58;;
55112;SDS011;41006;50.920;3.456;2023-05-02T03:09:47;49.33;;;41.85;;
55112;SDS011;41006;50.920;3.456;2023-05-02T03:10:20;53.35;;;41.90;;
55112;SDS011;41006;50.920;3.456;2023-05-02T03:10:50;45.25;;;39.75;;
55112;SDS011;41006;50.920;3.456;2023-05-02T03:11:21;48.40;;;41.20;;
55112;SDS011;41006;50.920;3.456;2023-05-02T03:11:51;58.20;;;41.63;;
55112;SDS011;41006;50.920;3.456;2023-05-02T03:12:21;53.33;;;39.70;;
55112;SDS011;41006;50.920;3.456;2023-05-02T03:12:51;53.83;;;42.25;;
55112;SDS011;41006;50.920;3.456;2023-05-02T03:13:24;50.42;;;41.53;;
55112;SDS011;41006;50.920;3.456;2023-05-02T03:13:54;51.70;;;39.53;;
55112;SDS011;41006;50.920;3.456;2023-05-02T03:14:25;48.17;;;38.35;;
55112;SDS011;41006;50.920;3.456;2023-05-02T03:16:30;47.22;;;39.80;;
55112;SDS011;41006;50.920;3.456;2023-05-02T03:17:01;50.40;;;41.42;;
55112;SDS011;41006;50.920;3.456;2023-05-02T03:17:34;47.53;;;40.50;;
55112;SDS011;41006;50.920;3.456;2023-05-02T03:18:08;50.15;;;40.10;;
55112;SDS011;41006;50.920;3.456;2023-05-02T03:18:38;48.53;;;42.15;;
55112;SDS011;41006;50.920;3.456;2023-05-02T03:19:09;47.67;;;40.67;;
55112;SDS011;41006;50.920;3.456;2023-05-02T03:19:42;55.13;;;42.33;;
55112;SDS011;41006;50.920;3.456;2023-05-02T03:20:15;49.92;;;38.33;;
55112;SDS011;41006;50.920;3.456;2023-05-02T03:20:47;47.35;;;41.53;;
55112;SDS011;41006;50.920;3.456;2023-05-02T03:21:18;52.53;;;41.15;;
55112;SDS011;41006;50.920;3.456;2023-05-02T03:21:50;45.72;;;40.63;;
55112;SDS011;41006;50.920;3.456;2023-05-02T03:22:21;48.40;;;40.38;;
55112;SDS011;41006;50.920;3.456;2023-05-02T03:22:51;46.47;;;40.63;;
55112;SDS011;41006;50.920;3.456;2023-05-02T03:23:21;48.47;;;40.38;;
55112;SDS011;41006;50.920;3.456;2023-05-02T03:23:54;48.85;;;39.40;;
55112;SDS011;41006;50.920;3.456;2023-05-02T03:24:25;51.47;;;41.28;;
55112;SDS011;41006;50.920;3.456;2023-05-02T03:24:58;46.03;;;40.05;;
55112;SDS011;41006;50.920;3.456;2023-05-02T03:25:31;50.20;;;41.72;;
55112;SDS011;41006;50.920;3.456;2023-05-02T03:26:02;49.92;;;42.50;;
55112;SDS011;41006;50.920;3.456;2023-05-02T03:26:32;48.22;;;42.63;;
55112;SDS011;41006;50.920;3.456;2023-05-02T03:27:02;47.22;;;42.08;;
55112;SDS011;41006;50.920;3.456;2023-05-02T03:27:35;49.38;;;42.28;;
55112;SDS011;41006;50.920;3.456;2023-05-02T03:28:06;48.72;;;41.20;;
55112;SDS011;41006;50.920;3.456;2023-05-02T03:28:36;49.13;;;41.45;;
55112;SDS011;41006;50.920;3.456;2023-05-02T03:29:08;51.30;;;41.50;;
55112;SDS011;41006;50.920;3.456;2023-05-02T03:29:39;44.10;;;39.30;;
55112;SDS011;41006;50.920;3.456;2023-05-02T03:30:09;45.30;;;38.40;;
55112;SDS011;41006;50.920;3.456;2023-05-02T03:30:44;42.78;;;37.15;;
55112;SDS011;41006;50.920;3.456;2023-05-02T03:31:17;46.92;;;37.75;;
55112;SDS011;41006;50.920;3.456;2023-05-02T03:31:50;50.25;;;39.00;;
55112;SDS011;41006;50.920;3.456;2023-05-02T03:32:20;42.63;;;37.67;;
55112;SDS011;41006;50.920;3.456;2023-05-02T03:32:55;46.80;;;37.47;;
55112;SDS011;41006;50.920;3.456;2023-05-02T03:33:25;45.83;;;37.40;;
55112;SDS011;41006;50.920;3.456;2023-05-02T03:34:01;46.75;;;39.15;;
55112;SDS011;41006;50.920;3.456;2023-05-02T03:34:33;46.45;;;38.03;;
55112;SDS011;41006;50.920;3.456;2023-05-02T03:35:06;44.55;;;37.85;;
55112;SDS011;41006;50.920;3.456;2023-05-02T03:35:38;46.47;;;38.75;;
55112;SDS011;41006;50.920;3.456;2023-05-02T03:36:08;45.20;;;39.15;;
55112;SDS011;41006;50.920;3.456;2023-05-02T03:36:40;43.85;;;39.13;;
55112;SDS011;41006;50.920;3.456;2023-05-02T03:37:10;50.55;;;39.08;;